Terminal Aerodrome Forecast
Issued by NWS

Home | Current Version | Previous Version | Graphics & Text | Print | Product List | Glossary On
Versions: 1 2 3 4 5 6 7 8 9 10 11 12 13
000
FTUS43 KICT 210520
TAFSLN
TAF
KSLN 210520Z 2106/2206 17013G22KT P6SM SKC WS020/21040KT
     FM211500 19017G22KT P6SM SKC
     FM212000 19022G26KT P6SM SKC
     FM220000 18013KT P6SM BKN300=

USA.gov is the U.S. government's official web portal to all federal, state and local government web resources and services.